sensor_id;sensor_type;location;lat;lon;timestamp;temperature;humidity
19110;DHT22;9687;50.836;12.060;2022-09-14T00:00:11;21.60;80.20
19110;DHT22;9687;50.836;12.060;2022-09-14T00:02:39;21.60;80.40
19110;DHT22;9687;50.836;12.060;2022-09-14T00:05:06;21.60;80.40
19110;DHT22;9687;50.836;12.060;2022-09-14T00:07:34;21.60;80.40
19110;DHT22;9687;50.836;12.060;2022-09-14T00:10:03;21.50;80.40
19110;DHT22;9687;50.836;12.060;2022-09-14T00:12:30;21.60;80.50
19110;DHT22;9687;50.836;12.060;2022-09-14T00:14:59;21.50;80.40
19110;DHT22;9687;50.836;12.060;2022-09-14T00:17:28;21.60;80.60
19110;DHT22;9687;50.836;12.060;2022-09-14T00:19:57;21.50;80.60
19110;DHT22;9687;50.836;12.060;2022-09-14T00:22:26;21.50;81.00
19110;DHT22;9687;50.836;12.060;2022-09-14T00:24:56;21.50;81.00
19110;DHT22;9687;50.836;12.060;2022-09-14T00:27:24;21.50;81.10
19110;DHT22;9687;50.836;12.060;2022-09-14T00:29:52;21.50;81.10
19110;DHT22;9687;50.836;12.060;2022-09-14T00:32:20;21.50;81.20
19110;DHT22;9687;50.836;12.060;2022-09-14T00:34:49;21.50;81.40
19110;DHT22;9687;50.836;12.060;2022-09-14T00:37:16;21.50;81.60
19110;DHT22;9687;50.836;12.060;2022-09-14T00:39:47;21.50;81.80
19110;DHT22;9687;50.836;12.060;2022-09-14T00:42:16;21.50;82.00
19110;DHT22;9687;50.836;12.060;2022-09-14T00:44:59;21.50;82.10
19110;DHT22;9687;50.836;12.060;2022-09-14T00:47:29;21.50;82.10
19110;DHT22;9687;50.836;12.060;2022-09-14T00:50:00;21.40;82.00
19110;DHT22;9687;50.836;12.060;2022-09-14T00:52:31;21.50;82.10
19110;DHT22;9687;50.836;12.060;2022-09-14T00:55:02;21.50;82.20
19110;DHT22;9687;50.836;12.060;2022-09-14T00:57:36;21.50;82.30
19110;DHT22;9687;50.836;12.060;2022-09-14T01:00:06;21.50;82.50
19110;DHT22;9687;50.836;12.060;2022-09-14T01:02:35;21.50;82.60
19110;DHT22;9687;50.836;12.060;2022-09-14T01:05:05;21.40;82.80
19110;DHT22;9687;50.836;12.060;2022-09-14T01:07:51;21.40;82.90
19110;DHT22;9687;50.836;12.060;2022-09-14T01:10:29;21.40;82.90
19110;DHT22;9687;50.836;12.060;2022-09-14T01:13:10;21.40;83.00
19110;DHT22;9687;50.836;12.060;2022-09-14T01:15:45;21.30;83.10
19110;DHT22;9687;50.836;12.060;2022-09-14T01:18:19;21.30;83.20
19110;DHT22;9687;50.836;12.060;2022-09-14T01:20:54;21.30;83.10
19110;DHT22;9687;50.836;12.060;2022-09-14T01:23:29;21.30;83.00
19110;DHT22;9687;50.836;12.060;2022-09-14T01:29:01;21.30;83.10
19110;DHT22;9687;50.836;12.060;2022-09-14T01:31:35;21.30;82.80
19110;DHT22;9687;50.836;12.060;2022-09-14T01:34:08;21.30;82.80
19110;DHT22;9687;50.836;12.060;2022-09-14T01:36:40;21.30;82.80
19110;DHT22;9687;50.836;12.060;2022-09-14T01:39:11;21.30;82.80
19110;DHT22;9687;50.836;12.060;2022-09-14T01:41:40;21.30;82.90
19110;DHT22;9687;50.836;12.060;2022-09-14T01:44:14;21.30;82.90
19110;DHT22;9687;50.836;12.060;2022-09-14T01:46:45;21.30;83.00
19110;DHT22;9687;50.836;12.060;2022-09-14T01:49:18;21.30;83.10
19110;DHT22;9687;50.836;12.060;2022-09-14T01:51:49;21.30;83.30
19110;DHT22;9687;50.836;12.060;2022-09-14T01:54:20;21.30;83.40
19110;DHT22;9687;50.836;12.060;2022-09-14T01:56:52;21.30;83.60
19110;DHT22;9687;50.836;12.060;2022-09-14T01:59:26;21.30;83.70
19110;DHT22;9687;50.836;12.060;2022-09-14T02:01:59;21.20;83.90
19110;DHT22;9687;50.836;12.060;2022-09-14T02:04:34;21.20;84.30
19110;DHT22;9687;50.836;12.060;2022-09-14T02:07:03;21.20;84.30
19110;DHT22;9687;50.836;12.060;2022-09-14T02:09:31;21.20;84.40
19110;DHT22;9687;50.836;12.060;2022-09-14T02:11:59;21.20;84.60
19110;DHT22;9687;50.836;12.060;2022-09-14T02:14:28;21.20;84.60
19110;DHT22;9687;50.836;12.060;2022-09-14T02:16:57;21.20;84.70
19110;DHT22;9687;50.836;12.060;2022-09-14T02:19:25;21.20;85.00
19110;DHT22;9687;50.836;12.060;2022-09-14T02:21:55;21.20;85.30
19110;DHT22;9687;50.836;12.060;2022-09-14T02:24:22;21.20;85.60
19110;DHT22;9687;50.836;12.060;2022-09-14T02:26:51;21.10;85.60
19110;DHT22;9687;50.836;12.060;2022-09-14T02:29:20;21.10;85.90
19110;DHT22;9687;50.836;12.060;2022-09-14T02:31:58;21.10;86.20
19110;DHT22;9687;50.836;12.060;2022-09-14T02:34:35;21.10;86.60
19110;DHT22;9687;50.836;12.060;2022-09-14T02:37:09;21.10;86.80
19110;DHT22;9687;50.836;12.060;2022-09-14T02:39:44;21.10;87.00
19110;DHT22;9687;50.836;12.060;2022-09-14T02:42:22;21.10;87.30
19110;DHT22;9687;50.836;12.060;2022-09-14T02:45:00;21.10;87.30
19110;DHT22;9687;50.836;12.060;2022-09-14T02:47:36;21.10;87.70
19110;DHT22;9687;50.836;12.060;2022-09-14T02:50:12;21.10;87.90
19110;DHT22;9687;50.836;12.060;2022-09-14T02:52:49;21.10;88.20
19110;DHT22;9687;50.836;12.060;2022-09-14T02:55:19;21.10;88.30
19110;DHT22;9687;50.836;12.060;2022-09-14T02:58:05;21.10;88.20
19110;DHT22;9687;50.836;12.060;2022-09-14T03:00:34;21.10;88.40
19110;DHT22;9687;50.836;12.060;2022-09-14T03:03:05;21.00;88.10
19110;DHT22;9687;50.836;12.060;2022-09-14T03:05:33;20.90;88.30
19110;DHT22;9687;50.836;12.060;2022-09-14T03:08:02;20.80;88.70
19110;DHT22;9687;50.836;12.060;2022-09-14T03:10:30;20.80;89.10
19110;DHT22;9687;50.836;12.060;2022-09-14T03:12:58;20.70;89.20
19110;DHT22;9687;50.836;12.060;2022-09-14T03:15:26;20.70;89.50
19110;DHT22;9687;50.836;12.060;2022-09-14T03:17:55;20.70;89.80
19110;DHT22;9687;50.836;12.060;2022-09-14T03:20:26;20.60;90.00
19110;DHT22;9687;50.836;12.060;2022-09-14T03:22:54;20.60;90.10
19110;DHT22;9687;50.836;12.060;2022-09-14T03:25:22;20.60;90.20
19110;DHT22;9687;50.836;12.060;2022-09-14T03:27:50;20.60;90.30
19110;DHT22;9687;50.836;12.060;2022-09-14T03:30:18;20.60;90.40
19110;DHT22;9687;50.836;12.060;2022-09-14T03:32:46;20.60;90.60
19110;DHT22;9687;50.836;12.060;2022-09-14T03:35:14;20.60;90.70
19110;DHT22;9687;50.836;12.060;2022-09-14T03:37:43;20.70;91.30
19110;DHT22;9687;50.836;12.060;2022-09-14T03:40:13;20.70;90.90
19110;DHT22;9687;50.836;12.060;2022-09-14T03:42:42;20.70;90.80
19110;DHT22;9687;50.836;12.060;2022-09-14T03:45:10;20.70;90.90
19110;DHT22;9687;50.836;12.060;2022-09-14T03:47:38;20.70;91.00
19110;DHT22;9687;50.836;12.060;2022-09-14T03:50:07;20.60;91.00
19110;DHT22;9687;50.836;12.060;2022-09-14T03:52:35;20.70;91.10
19110;DHT22;9687;50.836;12.060;2022-09-14T03:55:06;20.70;91.10
19110;DHT22;9687;50.836;12.060;2022-09-14T03:57:34;20.70;91.10
19110;DHT22;9687;50.836;12.060;2022-09-14T04:00:04;20.70;91.10
19110;DHT22;9687;50.836;12.060;2022-09-14T04:02:32;20.70;91.30
19110;DHT22;9687;50.836;12.060;2022-09-14T04:04:59;20.70;91.30
19110;DHT22;9687;50.836;12.060;2022-09-14T04:07:27;20.70;91.40
19110;DHT22;9687;50.836;12.060;2022-09-14T04:09:54;20.70;91.40
19110;DHT22;9687;50.836;12.060;2022-09-14T04:12:23;20.70;91.40
19110;DHT22;9687;50.836;12.060;2022-09-14T04:14:51;20.70;91.50
19110;DHT22;9687;50.836;12.060;2022-09-14T04:17:18;20.70;91.60
19110;DHT22;9687;50.836;12.060;2022-09-14T04:19:46;20.70;91.70
19110;DHT22;9687;50.836;12.060;2022-09-14T04:22:13;20.70;91.80
19110;DHT22;9687;50.836;12.060;2022-09-14T04:24:41;20.70;91.70
19110;DHT22;9687;50.836;12.060;2022-09-14T04:27:08;20.80;91.80
19110;DHT22;9687;50.836;12.060;2022-09-14T04:29:37;20.70;91.80
19110;DHT22;9687;50.836;12.060;2022-09-14T04:32:05;20.70;91.80
19110;DHT22;9687;50.836;12.060;2022-09-14T04:34:34;20.70;91.90
19110;DHT22;9687;50.836;12.060;2022-09-14T04:37:01;20.70;91.90
19110;DHT22;9687;50.836;12.060;2022-09-14T04:39:29;20.70;91.90
19110;DHT22;9687;50.836;12.060;2022-09-14T04:41:57;20.70;91.90
19110;DHT22;9687;50.836;12.060;2022-09-14T04:44:24;20.70;92.00
19110;DHT22;9687;50.836;12.060;2022-09-14T04:46:53;20.70;92.10
19110;DHT22;9687;50.836;12.060;2022-09-14T04:49:20;20.70;92.10
19110;DHT22;9687;50.836;12.060;2022-09-14T04:51:48;20.70;92.10
19110;DHT22;9687;50.836;12.060;2022-09-14T04:54:16;20.70;92.00
19110;DHT22;9687;50.836;12.060;2022-09-14T04:56:44;20.70;92.10
19110;DHT22;9687;50.836;12.060;2022-09-14T04:59:11;20.70;92.10
19110;DHT22;9687;50.836;12.060;2022-09-14T05:01:43;20.70;92.10
19110;DHT22;9687;50.836;12.060;2022-09-14T05:04:13;20.60;92.10
19110;DHT22;9687;50.836;12.060;2022-09-14T05:06:42;20.60;92.20
19110;DHT22;9687;50.836;12.060;2022-09-14T05:09:12;20.60;92.30
19110;DHT22;9687;50.836;12.060;2022-09-14T05:11:40;20.60;92.30
19110;DHT22;9687;50.836;12.060;2022-09-14T05:14:10;20.60;92.30
19110;DHT22;9687;50.836;12.060;2022-09-14T05:16:40;20.60;92.40
19110;DHT22;9687;50.836;12.060;2022-09-14T05:19:11;20.60;92.40
19110;DHT22;9687;50.836;12.060;2022-09-14T05:21:40;20.60;92.30
19110;DHT22;9687;50.836;12.060;2022-09-14T05:24:10;20.60;92.30
19110;DHT22;9687;50.836;12.060;2022-09-14T05:26:40;20.60;92.40
19110;DHT22;9687;50.836;12.060;2022-09-14T05:29:11;20.60;92.50
19110;DHT22;9687;50.836;12.060;2022-09-14T05:31:39;20.60;92.60
19110;DHT22;9687;50.836;12.060;2022-09-14T05:34:08;20.60;92.60
19110;DHT22;9687;50.836;12.060;2022-09-14T05:36:35;20.60;92.80
19110;DHT22;9687;50.836;12.060;2022-09-14T05:39:06;20.50;92.80
19110;DHT22;9687;50.836;12.060;2022-09-14T05:41:35;20.60;92.80
19110;DHT22;9687;50.836;12.060;2022-09-14T05:44:04;20.60;92.90
19110;DHT22;9687;50.836;12.060;2022-09-14T05:46:33;20.60;92.90
19110;DHT22;9687;50.836;12.060;2022-09-14T05:49:01;20.60;92.90
19110;DHT22;9687;50.836;12.060;2022-09-14T05:51:29;20.60;92.90
19110;DHT22;9687;50.836;12.060;2022-09-14T05:53:57;20.60;93.00
19110;DHT22;9687;50.836;12.060;2022-09-14T05:56:28;20.60;93.10
19110;DHT22;9687;50.836;12.060;2022-09-14T05:58:56;20.60;93.10
19110;DHT22;9687;50.836;12.060;2022-09-14T06:01:28;20.60;93.10
19110;DHT22;9687;50.836;12.060;2022-09-14T06:03:57;20.60;93.10
19110;DHT22;9687;50.836;12.060;2022-09-14T06:06:25;20.70;93.20
19110;DHT22;9687;50.836;12.060;2022-09-14T06:08:53;20.70;93.30
19110;DHT22;9687;50.836;12.060;2022-09-14T06:11:24;20.60;93.20
19110;DHT22;9687;50.836;12.060;2022-09-14T06:13:57;20.70;93.30
19110;DHT22;9687;50.836;12.060;2022-09-14T06:16:28;20.70;93.30
19110;DHT22;9687;50.836;12.060;2022-09-14T06:18:57;20.70;93.40
19110;DHT22;9687;50.836;12.060;2022-09-14T06:21:28;20.80;93.50
19110;DHT22;9687;50.836;12.060;2022-09-14T06:23:57;20.70;93.50
19110;DHT22;9687;50.836;12.060;2022-09-14T06:26:25;20.70;93.50
19110;DHT22;9687;50.836;12.060;2022-09-14T06:28:53;20.80;93.60
19110;DHT22;9687;50.836;12.060;2022-09-14T06:31:22;20.70;93.70
19110;DHT22;9687;50.836;12.060;2022-09-14T06:33:50;20.80;93.80
19110;DHT22;9687;50.836;12.060;2022-09-14T06:36:19;20.80;93.90
19110;DHT22;9687;50.836;12.060;2022-09-14T06:38:47;20.80;93.90
19110;DHT22;9687;50.836;12.060;2022-09-14T06:41:19;20.80;93.80
19110;DHT22;9687;50.836;12.060;2022-09-14T06:43:49;20.80;93.80
19110;DHT22;9687;50.836;12.060;2022-09-14T06:46:26;20.80;93.70
19110;DHT22;9687;50.836;12.060;2022-09-14T06:48:58;20.80;93.80
19110;DHT22;9687;50.836;12.060;2022-09-14T06:51:28;20.80;93.80
19110;DHT22;9687;50.836;12.060;2022-09-14T06:53:57;20.80;93.90
19110;DHT22;9687;50.836;12.060;2022-09-14T06:56:27;20.80;94.00
19110;DHT22;9687;50.836;12.060;2022-09-14T06:58:59;20.80;94.10
19110;DHT22;9687;50.836;12.060;2022-09-14T07:01:33;20.80;94.10
19110;DHT22;9687;50.836;12.060;2022-09-14T07:04:02;20.80;94.20
19110;DHT22;9687;50.836;12.060;2022-09-14T07:06:38;20.80;94.40
19110;DHT22;9687;50.836;12.060;2022-09-14T07:09:06;20.80;94.40
19110;DHT22;9687;50.836;12.060;2022-09-14T07:11:33;20.80;94.40
19110;DHT22;9687;50.836;12.060;2022-09-14T07:14:01;20.80;94.50
19110;DHT22;9687;50.836;12.060;2022-09-14T07:16:32;20.90;94.60
19110;DHT22;9687;50.836;12.060;2022-09-14T07:19:02;20.80;94.70
19110;DHT22;9687;50.836;12.060;2022-09-14T07:21:32;20.90;94.80
19110;DHT22;9687;50.836;12.060;2022-09-14T07:24:04;20.90;94.80
19110;DHT22;9687;50.836;12.060;2022-09-14T07:26:39;20.80;94.70
19110;DHT22;9687;50.836;12.060;2022-09-14T07:29:10;20.90;94.70
19110;DHT22;9687;50.836;12.060;2022-09-14T07:31:44;20.90;94.60
19110;DHT22;9687;50.836;12.060;2022-09-14T07:34:13;20.90;94.70
19110;DHT22;9687;50.836;12.060;2022-09-14T07:36:41;20.90;94.70
19110;DHT22;9687;50.836;12.060;2022-09-14T07:39:11;20.90;94.90
19110;DHT22;9687;50.836;12.060;2022-09-14T07:41:40;20.90;95.00
19110;DHT22;9687;50.836;12.060;2022-09-14T07:44:14;20.90;95.00
19110;DHT22;9687;50.836;12.060;2022-09-14T07:46:47;20.90;95.10
19110;DHT22;9687;50.836;12.060;2022-09-14T07:49:16;20.90;95.10
19110;DHT22;9687;50.836;12.060;2022-09-14T07:51:44;21.00;95.20
19110;DHT22;9687;50.836;12.060;2022-09-14T07:54:16;21.00;95.30
19110;DHT22;9687;50.836;12.060;2022-09-14T07:56:46;21.00;95.20
19110;DHT22;9687;50.836;12.060;2022-09-14T07:59:22;21.00;95.20
19110;DHT22;9687;50.836;12.060;2022-09-14T08:01:52;21.00;95.20
19110;DHT22;9687;50.836;12.060;2022-09-14T08:04:22;21.00;95.20
19110;DHT22;9687;50.836;12.060;2022-09-14T08:06:52;21.00;95.20
19110;DHT22;9687;50.836;12.060;2022-09-14T08:09:21;21.10;95.30
19110;DHT22;9687;50.836;12.060;2022-09-14T08:11:49;21.00;95.20
19110;DHT22;9687;50.836;12.060;2022-09-14T08:14:17;21.10;95.20
19110;DHT22;9687;50.836;12.060;2022-09-14T08:16:47;21.10;95.20
19110;DHT22;9687;50.836;12.060;2022-09-14T08:19:17;21.10;95.50
19110;DHT22;9687;50.836;12.060;2022-09-14T08:21:45;21.10;95.70
19110;DHT22;9687;50.836;12.060;2022-09-14T08:24:15;21.10;95.70
19110;DHT22;9687;50.836;12.060;2022-09-14T08:26:44;21.10;95.70
19110;DHT22;9687;50.836;12.060;2022-09-14T08:29:15;21.10;95.70
19110;DHT22;9687;50.836;12.060;2022-09-14T08:31:44;21.10;95.80
19110;DHT22;9687;50.836;12.060;2022-09-14T08:34:13;21.20;95.90
19110;DHT22;9687;50.836;12.060;2022-09-14T08:36:43;21.10;95.80
19110;DHT22;9687;50.836;12.060;2022-09-14T08:39:13;21.20;96.00
19110;DHT22;9687;50.836;12.060;2022-09-14T08:41:50;21.10;96.00
19110;DHT22;9687;50.836;12.060;2022-09-14T08:44:27;21.10;96.20
19110;DHT22;9687;50.836;12.060;2022-09-14T08:47:01;21.20;96.20
19110;DHT22;9687;50.836;12.060;2022-09-14T08:49:40;21.20;96.10
19110;DHT22;9687;50.836;12.060;2022-09-14T08:52:19;21.20;96.10
19110;DHT22;9687;50.836;12.060;2022-09-14T08:54:53;21.20;96.10
19110;DHT22;9687;50.836;12.060;2022-09-14T08:57:32;21.20;96.00
19110;DHT22;9687;50.836;12.060;2022-09-14T09:00:08;21.30;96.00
19110;DHT22;9687;50.836;12.060;2022-09-14T09:03:02;21.30;95.90
19110;DHT22;9687;50.836;12.060;2022-09-14T09:05:53;21.20;95.90
19110;DHT22;9687;50.836;12.060;2022-09-14T09:08:32;21.30;95.90
19110;DHT22;9687;50.836;12.060;2022-09-14T09:11:04;21.30;96.10
19110;DHT22;9687;50.836;12.060;2022-09-14T09:13:36;21.30;96.30
19110;DHT22;9687;50.836;12.060;2022-09-14T09:16:06;21.30;96.30
19110;DHT22;9687;50.836;12.060;2022-09-14T09:18:38;21.30;96.20
19110;DHT22;9687;50.836;12.060;2022-09-14T09:21:11;21.90;96.60
19110;DHT22;9687;50.836;12.060;2022-09-14T09:23:42;21.30;96.30
19110;DHT22;9687;50.836;12.060;2022-09-14T09:26:16;21.40;96.30
19110;DHT22;9687;50.836;12.060;2022-09-14T09:28:50;21.40;96.30
19110;DHT22;9687;50.836;12.060;2022-09-14T09:31:31;21.40;96.30
19110;DHT22;9687;50.836;12.060;2022-09-14T09:34:00;21.40;96.50
19110;DHT22;9687;50.836;12.060;2022-09-14T09:36:33;21.40;96.50
19110;DHT22;9687;50.836;12.060;2022-09-14T09:39:05;21.40;96.40
19110;DHT22;9687;50.836;12.060;2022-09-14T09:41:42;21.40;96.40
19110;DHT22;9687;50.836;12.060;2022-09-14T09:44:11;21.40;96.50
19110;DHT22;9687;50.836;12.060;2022-09-14T09:46:44;21.40;96.60
19110;DHT22;9687;50.836;12.060;2022-09-14T09:49:21;21.40;96.60
19110;DHT22;9687;50.836;12.060;2022-09-14T09:51:56;21.40;96.70
19110;DHT22;9687;50.836;12.060;2022-09-14T09:54:50;21.40;96.70
19110;DHT22;9687;50.836;12.060;2022-09-14T09:57:22;21.40;96.60
19110;DHT22;9687;50.836;12.060;2022-09-14T09:59:50;21.40;96.60
19110;DHT22;9687;50.836;12.060;2022-09-14T10:02:28;21.40;96.50
19110;DHT22;9687;50.836;12.060;2022-09-14T10:05:03;21.50;96.60
19110;DHT22;9687;50.836;12.060;2022-09-14T10:07:35;21.50;96.50
19110;DHT22;9687;50.836;12.060;2022-09-14T10:10:08;21.50;96.40
19110;DHT22;9687;50.836;12.060;2022-09-14T10:12:48;21.50;96.40
19110;DHT22;9687;50.836;12.060;2022-09-14T10:15:21;21.50;96.40
19110;DHT22;9687;50.836;12.060;2022-09-14T10:18:07;21.50;96.10
19110;DHT22;9687;50.836;12.060;2022-09-14T10:20:43;21.50;96.40
19110;DHT22;9687;50.836;12.060;2022-09-14T10:23:26;21.50;96.70
19110;DHT22;9687;50.836;12.060;2022-09-14T10:29:38;21.50;96.50
19110;DHT22;9687;50.836;12.060;2022-09-14T10:32:17;21.50;96.70
19110;DHT22;9687;50.836;12.060;2022-09-14T10:34:47;21.50;96.70
19110;DHT22;9687;50.836;12.060;2022-09-14T10:37:31;21.50;96.70
19110;DHT22;9687;50.836;12.060;2022-09-14T10:40:12;21.50;96.70
19110;DHT22;9687;50.836;12.060;2022-09-14T10:42:57;21.50;96.70
19110;DHT22;9687;50.836;12.060;2022-09-14T10:45:37;21.50;96.90
19110;DHT22;9687;50.836;12.060;2022-09-14T10:51:13;21.60;97.20
19110;DHT22;9687;50.836;12.060;2022-09-14T10:53:54;21.60;97.10
19110;DHT22;9687;50.836;12.060;2022-09-14T10:56:37;21.60;97.10
19110;DHT22;9687;50.836;12.060;2022-09-14T10:59:18;21.70;97.20
19110;DHT22;9687;50.836;12.060;2022-09-14T11:05:10;21.70;97.10
19110;DHT22;9687;50.836;12.060;2022-09-14T11:07:50;21.70;96.80
19110;DHT22;9687;50.836;12.060;2022-09-14T11:10:29;21.80;96.80
19110;DHT22;9687;50.836;12.060;2022-09-14T11:13:22;21.70;96.70
19110;DHT22;9687;50.836;12.060;2022-09-14T11:15:58;21.70;96.80
19110;DHT22;9687;50.836;12.060;2022-09-14T11:18:59;21.70;96.70
19110;DHT22;9687;50.836;12.060;2022-09-14T11:21:39;21.80;96.80
19110;DHT22;9687;50.836;12.060;2022-09-14T11:24:17;21.80;96.70
19110;DHT22;9687;50.836;12.060;2022-09-14T11:26:53;21.80;96.70
19110;DHT22;9687;50.836;12.060;2022-09-14T11:29:27;21.80;96.80
19110;DHT22;9687;50.836;12.060;2022-09-14T11:32:01;21.80;96.90
19110;DHT22;9687;50.836;12.060;2022-09-14T11:34:36;21.80;97.10
19110;DHT22;9687;50.836;12.060;2022-09-14T11:37:08;21.80;97.00
19110;DHT22;9687;50.836;12.060;2022-09-14T11:39:38;21.80;97.10
19110;DHT22;9687;50.836;12.060;2022-09-14T11:42:11;21.80;97.00
19110;DHT22;9687;50.836;12.060;2022-09-14T11:44:42;21.80;97.10
19110;DHT22;9687;50.836;12.060;2022-09-14T11:47:14;21.90;97.30
19110;DHT22;9687;50.836;12.060;2022-09-14T11:49:53;21.90;97.30
19110;DHT22;9687;50.836;12.060;2022-09-14T11:52:23;21.90;97.20
19110;DHT22;9687;50.836;12.060;2022-09-14T11:54:53;21.90;97.10
19110;DHT22;9687;50.836;12.060;2022-09-14T11:57:25;21.90;97.10
19110;DHT22;9687;50.836;12.060;2022-09-14T11:59:54;21.90;97.20
19110;DHT22;9687;50.836;12.060;2022-09-14T12:03:12;21.90;97.20
19110;DHT22;9687;50.836;12.060;2022-09-14T12:05:41;21.60;97.00
19110;DHT22;9687;50.836;12.060;2022-09-14T12:08:36;22.00;97.10
19110;DHT22;9687;50.836;12.060;2022-09-14T12:11:28;22.00;97.40
19110;DHT22;9687;50.836;12.060;2022-09-14T12:14:25;22.00;97.50
19110;DHT22;9687;50.836;12.060;2022-09-14T12:17:05;22.10;97.40
19110;DHT22;9687;50.836;12.060;2022-09-14T12:19:32;22.10;97.40
19110;DHT22;9687;50.836;12.060;2022-09-14T12:22:24;22.10;97.30
19110;DHT22;9687;50.836;12.060;2022-09-14T12:25:17;22.10;97.40
19110;DHT22;9687;50.836;12.060;2022-09-14T12:27:47;22.10;97.30
19110;DHT22;9687;50.836;12.060;2022-09-14T12:31:05;22.20;97.20
19110;DHT22;9687;50.836;12.060;2022-09-14T12:39:33;22.20;97.00
19110;DHT22;9687;50.836;12.060;2022-09-14T12:42:09;22.20;96.80
19110;DHT22;9687;50.836;12.060;2022-09-14T12:44:50;22.20;97.00
19110;DHT22;9687;50.836;12.060;2022-09-14T12:47:50;22.20;97.20
19110;DHT22;9687;50.836;12.060;2022-09-14T12:50:18;22.20;97.20
19110;DHT22;9687;50.836;12.060;2022-09-14T12:55:50;22.30;97.20
19110;DHT22;9687;50.836;12.060;2022-09-14T12:58:48;22.30;97.20
19110;DHT22;9687;50.836;12.060;2022-09-14T13:01:33;22.30;97.10
19110;DHT22;9687;50.836;12.060;2022-09-14T13:04:02;22.20;97.30
19110;DHT22;9687;50.836;12.060;2022-09-14T13:06:34;22.30;97.10
19110;DHT22;9687;50.836;12.060;2022-09-14T13:09:14;22.20;97.10
19110;DHT22;9687;50.836;12.060;2022-09-14T13:11:46;22.30;97.20
19110;DHT22;9687;50.836;12.060;2022-09-14T13:14:17;22.20;97.20
19110;DHT22;9687;50.836;12.060;2022-09-14T13:16:49;22.30;97.80
19110;DHT22;9687;50.836;12.060;2022-09-14T13:19:23;22.30;97.60
19110;DHT22;9687;50.836;12.060;2022-09-14T13:21:54;22.30;97.70
19110;DHT22;9687;50.836;12.060;2022-09-14T13:24:27;22.30;98.10
19110;DHT22;9687;50.836;12.060;2022-09-14T13:26:59;22.30;98.00
19110;DHT22;9687;50.836;12.060;2022-09-14T13:29:27;22.30;98.00
19110;DHT22;9687;50.836;12.060;2022-09-14T13:31:57;22.30;98.00
19110;DHT22;9687;50.836;12.060;2022-09-14T13:34:28;22.30;98.00
19110;DHT22;9687;50.836;12.060;2022-09-14T13:36:57;22.40;98.00
19110;DHT22;9687;50.836;12.060;2022-09-14T13:39:27;22.40;98.00
19110;DHT22;9687;50.836;12.060;2022-09-14T13:41:57;22.40;98.10
19110;DHT22;9687;50.836;12.060;2022-09-14T13:44:29;22.30;98.00
19110;DHT22;9687;50.836;12.060;2022-09-14T13:46:59;22.30;98.10
19110;DHT22;9687;50.836;12.060;2022-09-14T13:49:27;22.30;98.10
19110;DHT22;9687;50.836;12.060;2022-09-14T13:52:17;22.30;98.00
19110;DHT22;9687;50.836;12.060;2022-09-14T13:54:45;22.30;98.10
19110;DHT22;9687;50.836;12.060;2022-09-14T13:57:15;22.40;98.10
19110;DHT22;9687;50.836;12.060;2022-09-14T14:00:03;22.30;98.20
19110;DHT22;9687;50.836;12.060;2022-09-14T14:02:32;22.30;98.30
19110;DHT22;9687;50.836;12.060;2022-09-14T14:05:01;22.30;98.20
19110;DHT22;9687;50.836;12.060;2022-09-14T14:07:31;22.30;98.30
19110;DHT22;9687;50.836;12.060;2022-09-14T14:10:00;22.30;98.40
19110;DHT22;9687;50.836;12.060;2022-09-14T14:12:32;22.30;98.40
19110;DHT22;9687;50.836;12.060;2022-09-14T14:15:04;22.30;98.40
19110;DHT22;9687;50.836;12.060;2022-09-14T14:17:36;22.30;98.40
19110;DHT22;9687;50.836;12.060;2022-09-14T14:20:33;22.30;98.40
19110;DHT22;9687;50.836;12.060;2022-09-14T14:23:15;22.30;98.60
19110;DHT22;9687;50.836;12.060;2022-09-14T14:25:47;22.30;98.50
19110;DHT22;9687;50.836;12.060;2022-09-14T14:28:22;22.20;98.50
19110;DHT22;9687;50.836;12.060;2022-09-14T14:30:50;22.30;98.70
19110;DHT22;9687;50.836;12.060;2022-09-14T14:33:18;22.30;98.80
19110;DHT22;9687;50.836;12.060;2022-09-14T14:35:49;22.30;98.90
19110;DHT22;9687;50.836;12.060;2022-09-14T14:38:19;22.30;99.00
19110;DHT22;9687;50.836;12.060;2022-09-14T14:40:49;22.30;99.00
19110;DHT22;9687;50.836;12.060;2022-09-14T14:43:23;22.30;99.00
19110;DHT22;9687;50.836;12.060;2022-09-14T14:45:54;22.20;98.80
19110;DHT22;9687;50.836;12.060;2022-09-14T14:48:21;22.20;98.70
19110;DHT22;9687;50.836;12.060;2022-09-14T14:50:50;22.30;98.60
19110;DHT22;9687;50.836;12.060;2022-09-14T14:53:18;22.30;98.60
19110;DHT22;9687;50.836;12.060;2022-09-14T14:55:46;22.20;98.50
19110;DHT22;9687;50.836;12.060;2022-09-14T14:58:15;22.20;98.50
19110;DHT22;9687;50.836;12.060;2022-09-14T15:00:45;22.30;98.60
19110;DHT22;9687;50.836;12.060;2022-09-14T15:03:12;22.20;98.50
19110;DHT22;9687;50.836;12.060;2022-09-14T15:05:41;22.20;98.60
19110;DHT22;9687;50.836;12.060;2022-09-14T15:08:10;22.30;98.70
19110;DHT22;9687;50.836;12.060;2022-09-14T15:10:38;22.20;98.70
19110;DHT22;9687;50.836;12.060;2022-09-14T15:13:06;22.20;98.70
19110;DHT22;9687;50.836;12.060;2022-09-14T15:15:34;22.20;98.70
19110;DHT22;9687;50.836;12.060;2022-09-14T15:18:03;22.20;98.70
19110;DHT22;9687;50.836;12.060;2022-09-14T15:20:31;22.20;98.80
19110;DHT22;9687;50.836;12.060;2022-09-14T15:22:58;22.10;98.70
19110;DHT22;9687;50.836;12.060;2022-09-14T15:25:26;22.20;98.60
19110;DHT22;9687;50.836;12.060;2022-09-14T15:27:54;22.10;98.50
19110;DHT22;9687;50.836;12.060;2022-09-14T15:30:22;22.10;98.40
19110;DHT22;9687;50.836;12.060;2022-09-14T15:32:49;22.10;98.40
19110;DHT22;9687;50.836;12.060;2022-09-14T15:35:18;22.10;98.30
19110;DHT22;9687;50.836;12.060;2022-09-14T15:37:46;22.10;98.30
19110;DHT22;9687;50.836;12.060;2022-09-14T15:40:14;22.00;98.20
19110;DHT22;9687;50.836;12.060;2022-09-14T15:42:41;22.10;98.30
19110;DHT22;9687;50.836;12.060;2022-09-14T15:45:09;22.00;98.30
19110;DHT22;9687;50.836;12.060;2022-09-14T15:47:37;22.00;98.30
19110;DHT22;9687;50.836;12.060;2022-09-14T15:50:08;22.00;98.40
19110;DHT22;9687;50.836;12.060;2022-09-14T15:52:38;22.00;98.40
19110;DHT22;9687;50.836;12.060;2022-09-14T15:55:07;21.90;98.50
19110;DHT22;9687;50.836;12.060;2022-09-14T15:57:36;21.90;98.50
19110;DHT22;9687;50.836;12.060;2022-09-14T16:00:06;21.90;98.60
19110;DHT22;9687;50.836;12.060;2022-09-14T16:02:34;21.90;98.70
19110;DHT22;9687;50.836;12.060;2022-09-14T16:05:02;21.90;98.80
19110;DHT22;9687;50.836;12.060;2022-09-14T16:07:30;21.90;99.00
19110;DHT22;9687;50.836;12.060;2022-09-14T16:09:58;21.80;98.90
19110;DHT22;9687;50.836;12.060;2022-09-14T16:12:26;21.80;98.90
19110;DHT22;9687;50.836;12.060;2022-09-14T16:14:54;21.80;99.00
19110;DHT22;9687;50.836;12.060;2022-09-14T16:17:21;21.80;98.80
19110;DHT22;9687;50.836;12.060;2022-09-14T16:19:49;21.80;99.10
19110;DHT22;9687;50.836;12.060;2022-09-14T16:22:16;21.70;99.20